Terminal Aerodrome Forecast
Issued by NWS Upton, NY

Current Version | Previous Version | Text Only | Print | Product List | Glossary On
Versions: 1 2 3 4 5 6 7 8 9 10 11 12 13 14 15 16 17 18 19 20 21 22 23 24 25 26 27 28 29 30 31
516 FTUS41 KOKX 251122 TAFISP TAF KISP 251122Z 2512/2612 VRB04KT P6SM SCT060 BKN150 FM251400 36005KT P6SM SCT050 BKN100 FM251800 03007KT P6SM OVC035 TEMPO 2518/2521 6SM -RA BKN020 FM252100 05009KT 4SM -RA BR OVC010 FM260100 05010KT 4SM -DZ BR OVC008=

USA.gov is the U.S. government's official web portal to all federal, state and local government web resources and services.